Time;durP1;ratioP1;P1;durP2;ratioP2;P2;SDS_P1;SDS_P2;PMS_P1;PMS_P2;Temp;Humidity;BMP_temperature;BMP_pressure;BME280_temperature;BME280_humidity;BME280_pressure;Samples;Min_cycle;Max_cycle;Signal;HPM_P1;HPM_P2
2022/05/20 00:01:52;;;;;;;2.45;1.50;;;;;;;18.29;39.69;102237.37;1680698;85;21038;-47
2022/05/20 00:04:21;;;;;;;3.40;1.50;;;;;;;18.26;39.78;102232.66;1681056;85;21054;-49
2022/05/20 00:06:48;;;;;;;2.33;1.10;;;;;;;18.23;39.86;102224.83;1681013;85;21477;-49
2022/05/20 00:09:15;;;;;;;3.42;1.40;;;;;;;18.20;39.95;102222.27;1680855;85;21048;-48
2022/05/20 00:11:42;;;;;;;1.52;1.20;;;;;;;18.17;40.09;102219.75;1674803;85;21016;-46
2022/05/20 00:14:08;;;;;;;3.70;1.30;;;;;;;18.14;40.09;102214.55;1659833;85;21050;-48
2022/05/20 00:16:36;;;;;;;1.55;1.22;;;;;;;18.12;40.10;102218.56;1683327;85;21514;-49
2022/05/20 00:19:07;;;;;;;1.72;1.40;;;;;;;18.12;40.04;102219.00;1693034;83;21093;-49
2022/05/20 00:21:35;;;;;;;2.37;1.40;;;;;;;18.10;39.98;102220.82;1672767;85;21064;-45
2022/05/20 00:24:03;;;;;;;2.02;1.82;;;;;;;18.08;39.91;102218.24;1681154;85;21544;-48
2022/05/20 00:26:29;;;;;;;2.92;1.47;;;;;;;18.08;39.83;102214.73;1668429;85;21025;-48
2022/05/20 00:28:56;;;;;;;2.22;1.55;;;;;;;18.07;39.97;102220.93;1695653;84;21019;-46
2022/05/20 00:31:26;;;;;;;3.35;1.27;;;;;;;18.07;40.12;102223.56;1698752;84;21035;-48
2022/05/20 00:33:53;;;;;;;4.08;1.60;;;;;;;18.04;40.34;102213.11;1678561;84;21188;-49
2022/05/20 00:36:20;;;;;;;1.72;1.45;;;;;;;18.03;40.55;102216.66;1688992;84;21047;-48
2022/05/20 00:38:48;;;;;;;2.12;1.50;;;;;;;18.04;40.77;102215.73;1689461;83;21110;-50
2022/05/20 00:41:16;;;;;;;4.42;1.82;;;;;;;18.04;40.99;102218.38;1690937;84;21046;-45
2022/05/20 00:43:48;;;;;;;1.90;1.67;;;;;;;18.03;41.20;102210.95;1677145;85;21053;-49
2022/05/20 00:46:20;;;;;;;3.90;1.87;;;;;;;18.03;41.43;102211.39;1681337;85;21018;-48
2022/05/20 00:48:51;;;;;;;2.92;1.60;;;;;;;18.03;41.58;102217.53;1682012;83;21618;-50
2022/05/20 00:51:31;;;;;;;3.90;1.60;;;;;;;18.02;41.68;102208.34;1661849;84;21074;-48
2022/05/20 00:54:21;;;;;;;1.70;1.40;;;;;;;18.02;41.82;102216.23;1674714;84;21091;-48
2022/05/20 00:56:53;;;;;;;2.05;1.45;;;;;;;18.01;41.96;102219.80;1681068;83;21060;-48
2022/05/20 00:59:23;;;;;;;3.27;1.70;;;;;;;17.99;42.24;102222.93;1663504;85;21063;-49
2022/05/20 01:01:52;;;;;;;2.70;1.55;;;;;;;17.98;42.57;102227.77;1646694;86;21117;-47
2022/05/20 01:04:18;;;;;;;3.10;1.85;;;;;;;17.96;43.00;102228.27;1630046;86;21089;-48
2022/05/20 01:06:46;;;;;;;3.67;1.50;;;;;;;17.94;43.49;102224.81;1645688;86;21105;-46
2022/05/20 01:09:13;;;;;;;4.50;2.60;;;;;;;17.92;44.06;102229.27;1644667;86;21114;-49
2022/05/20 01:11:39;;;;;;;3.08;1.70;;;;;;;17.88;44.75;102224.11;1651061;85;21148;-49
2022/05/20 01:14:08;;;;;;;2.60;1.60;;;;;;;17.85;45.50;102226.81;1665310;85;21520;-45
2022/05/20 01:16:37;;;;;;;4.15;2.02;;;;;;;17.82;46.18;102219.02;1640977;86;21144;-52
2022/05/20 01:19:04;;;;;;;6.83;2.12;;;;;;;17.83;46.78;102223.36;1626719;86;21048;-48
2022/05/20 01:21:30;;;;;;;2.80;1.60;;;;;;;17.84;47.25;102229.05;1649468;86;21077;-46
2022/05/20 01:24:02;;;;;;;3.33;2.33;;;;;;;17.88;47.60;102229.38;1632620;86;21137;-49
2022/05/20 01:26:28;;;;;;;3.22;2.35;;;;;;;17.91;47.74;102228.88;1634621;86;21106;-49
2022/05/20 01:28:55;;;;;;;4.10;2.00;;;;;;;17.95;47.73;102226.08;1650767;86;21109;-46
2022/05/20 01:31:22;;;;;;;6.90;1.70;;;;;;;18.00;47.73;102228.59;1633712;86;21094;-49
2022/05/20 01:33:51;;;;;;;5.47;2.10;;;;;;;18.02;47.81;102230.28;1641730;86;21086;-50
2022/05/20 01:36:21;;;;;;;4.70;1.98;;;;;;;18.09;47.67;102231.84;1651441;86;21045;-48
2022/05/20 01:38:52;;;;;;;5.58;2.27;;;;;;;18.15;47.35;102238.24;1624334;87;21091;-48
2022/05/20 01:41:33;;;;;;;4.83;2.05;;;;;;;18.16;47.10;102229.86;1627175;87;21135;-49
2022/05/20 01:44:22;;;;;;;2.92;1.80;;;;;;;18.10;46.92;102236.63;1615590;87;21680;-46
2022/05/20 01:47:02;;;;;;;3.55;2.00;;;;;;;18.07;46.61;102237.61;1639812;85;21617;-49
2022/05/20 01:49:39;;;;;;;8.40;2.85;;;;;;;18.08;46.29;102230.54;1651521;85;21070;-45
2022/05/20 01:52:25;;;;;;;3.85;2.10;;;;;;;18.07;46.08;102238.05;1654048;85;21138;-46
2022/05/20 01:55:19;;;;;;;1.92;1.70;;;;;;;18.06;46.18;102237.18;1663344;85;21137;-50
2022/05/20 01:58:12;;;;;;;4.67;2.08;;;;;;;18.06;46.55;102236.31;1659600;85;21031;-48
2022/05/20 02:00:39;;;;;;;3.45;2.22;;;;;;;18.05;47.00;102234.60;1623740;86;21074;-48
2022/05/20 02:03:22;;;;;;;2.80;2.20;;;;;;;18.05;47.42;102234.16;1621878;86;21047;-46
2022/05/20 02:06:16;;;;;;;3.25;2.10;;;;;;;18.06;47.91;102236.31;1629951;86;21082;-49
2022/05/20 02:08:49;;;;;;;3.33;2.25;;;;;;;18.07;48.21;102234.10;1630802;86;21051;-48
2022/05/20 02:11:31;;;;;;;4.03;2.08;;;;;;;18.08;48.66;102230.54;1533056;92;21093;-47
2022/05/20 02:14:26;;;;;;;5.45;2.20;;;;;;;18.12;49.02;102229.55;1539740;91;21176;-48
2022/05/20 02:17:15;;;;;;;6.45;2.50;;;;;;;18.22;49.09;102227.04;1513881;93;21083;-50
2022/05/20 02:19:58;;;;;;;4.10;2.47;;;;;;;18.29;49.20;102216.73;1514787;92;21158;-49
2022/05/20 02:22:29;;;;;;;2.62;2.25;;;;;;;18.33;49.32;102221.00;1530538;91;21159;-45
2022/05/20 02:24:56;;;;;;;3.35;2.10;;;;;;;18.37;49.27;102217.36;1541045;91;21130;-51
2022/05/20 02:27:27;;;;;;;5.20;2.12;;;;;;;18.41;49.18;102218.55;1531980;92;21560;-48
2022/05/20 02:30:13;;;;;;;3.42;2.12;;;;;;;18.45;49.03;102218.02;1510589;93;21140;-49
2022/05/20 02:32:54;;;;;;;4.53;2.05;;;;;;;18.40;49.03;102214.65;1440380;96;21706;-48
2022/05/20 02:35:21;;;;;;;3.00;2.20;;;;;;;18.38;49.16;102214.67;1475763;95;21590;-46
2022/05/20 02:37:48;;;;;;;3.80;2.10;;;;;;;18.40;49.29;102212.02;1448303;97;21635;-49
2022/05/20 02:40:17;;;;;;;4.80;2.22;;;;;;;18.43;49.31;102210.58;1494827;94;21536;-45
2022/05/20 02:42:44;;;;;;;4.45;2.58;;;;;;;18.47;49.36;102206.97;1506442;94;21095;-48
2022/05/20 02:45:11;;;;;;;2.62;1.80;;;;;;;18.54;49.31;102209.84;1471141;95;21086;-46
2022/05/20 02:47:38;;;;;;;4.10;2.20;;;;;;;18.57;49.33;102213.67;1481322;95;21127;-48
2022/05/20 02:50:10;;;;;;;2.77;2.00;;;;;;;18.56;49.34;102222.06;1482298;95;21128;-52
2022/05/20 02:52:36;;;;;;;2.55;1.98;;;;;;;18.58;49.26;102224.64;1472673;96;21593;-48
2022/05/20 02:55:06;;;;;;;3.87;2.30;;;;;;;18.59;49.13;102221.08;1483657;95;21060;-46
2022/05/20 02:57:33;;;;;;;2.47;2.10;;;;;;;18.59;48.94;102227.22;1479713;95;21126;-49
2022/05/20 03:05:31;;;;;;;1.80;1.70;;;;;;;18.59;47.35;102231.62;1479012;95;21067;-46
2022/05/20 03:07:57;;;;;;;3.12;1.60;;;;;;;18.60;47.16;102236.00;1479082;95;21677;-51
2022/05/20 03:10:25;;;;;;;2.80;1.80;;;;;;;18.60;46.87;102233.37;1535184;91;21089;-49
2022/05/20 03:13:02;;;;;;;3.15;1.90;;;;;;;18.58;46.78;102236.51;1532671;92;21216;-48
2022/05/20 03:15:29;;;;;;;4.30;1.70;;;;;;;18.55;46.87;102230.87;1599066;89;21553;-49
2022/05/20 03:17:56;;;;;;;2.33;1.72;;;;;;;18.52;47.20;102237.57;1616026;86;21105;-47
2022/05/20 03:20:24;;;;;;;6.25;2.00;;;;;;;18.52;47.65;102244.16;1646029;86;21076;-47
2022/05/20 03:22:50;;;;;;;3.77;1.85;;;;;;;18.52;48.13;102241.53;1647737;86;21572;-45
2022/05/20 03:25:17;;;;;;;4.50;2.45;;;;;;;18.55;48.31;102243.17;1649479;86;21085;-50
2022/05/20 03:27:45;;;;;;;3.60;2.05;;;;;;;18.60;48.79;102249.19;1697979;83;21601;-48
2022/05/20 03:30:12;;;;;;;5.30;2.00;;;;;;;18.75;48.78;102241.25;1669721;84;21087;-50
2022/05/20 03:32:38;;;;;;;5.15;2.27;;;;;;;19.03;48.06;102253.48;1683724;83;20994;-51
2022/05/20 03:35:06;;;;;;;3.45;2.17;;;;;;;19.48;47.42;102251.96;1681135;85;21505;-49
2022/05/20 03:37:32;;;;;;;7.50;2.40;;;;;;;20.06;46.61;102256.45;1667660;84;21017;-47
2022/05/20 03:40:00;;;;;;;3.35;1.90;;;;;;;20.77;45.68;102261.16;1657260;84;21545;-48
2022/05/20 03:42:27;;;;;;;3.75;2.20;;;;;;;21.47;44.41;102251.20;1661116;86;21569;-46
2022/05/20 03:44:53;;;;;;;4.92;2.08;;;;;;;22.06;42.64;102254.33;1658025;85;21057;-48
2022/05/20 03:47:20;;;;;;;3.33;2.17;;;;;;;22.39;41.60;102253.63;1673070;85;21058;-44
2022/05/20 03:49:47;;;;;;;3.22;2.17;;;;;;;22.50;41.13;102255.78;1663389;85;21053;-50
2022/05/20 03:52:14;;;;;;;4.70;1.90;;;;;;;22.45;40.55;102250.69;1672345;85;21539;-47
2022/05/20 03:54:42;;;;;;;4.53;1.92;;;;;;;22.38;40.33;102261.17;1674222;85;21054;-48
2022/05/20 03:57:09;;;;;;;4.12;2.55;;;;;;;22.21;40.13;102258.93;1667282;85;21140;-47
2022/05/20 03:59:36;;;;;;;4.08;1.90;;;;;;;21.97;40.48;102255.59;1671576;85;22199;-46
2022/05/20 04:02:06;;;;;;;3.37;2.00;;;;;;;21.73;40.82;102258.00;1686306;83;21035;-48
2022/05/20 04:04:44;;;;;;;2.80;2.35;;;;;;;21.48;41.14;102254.69;1684625;83;21073;-48
2022/05/20 04:07:23;;;;;;;3.58;2.27;;;;;;;21.28;41.49;102254.69;1639599;86;21053;-46
2022/05/20 04:09:53;;;;;;;6.65;2.17;;;;;;;21.07;41.58;102261.75;1629289;88;21025;-45
2022/05/20 04:12:30;;;;;;;4.30;1.95;;;;;;;20.85;41.58;102267.04;1630451;87;21529;-44
2022/05/20 04:14:57;;;;;;;3.12;2.30;;;;;;;20.67;41.87;102267.75;1617312;87;21096;-44
2022/05/20 04:17:24;;;;;;;4.20;2.22;;;;;;;20.52;41.98;102269.70;1602281;87;21058;-49
2022/05/20 04:19:51;;;;;;;4.53;2.27;;;;;;;20.35;42.32;102274.77;1610960;88;21051;-48
2022/05/20 04:22:22;;;;;;;3.75;2.17;;;;;;;20.22;42.81;102273.49;1651018;85;21083;-47
2022/05/20 04:24:49;;;;;;;2.40;1.87;;;;;;;20.12;43.21;102276.05;1612355;87;21109;-50
2022/05/20 04:27:16;;;;;;;4.00;2.10;;;;;;;20.02;43.48;102278.63;1624061;87;21578;-48
2022/05/20 04:29:43;;;;;;;5.03;2.08;;;;;;;19.93;43.63;102273.67;1597009;88;21070;-47
2022/05/20 04:32:10;;;;;;;5.08;2.20;;;;;;;19.87;43.87;102276.53;1570450;90;21061;-48
2022/05/20 04:34:38;;;;;;;2.98;2.20;;;;;;;19.82;44.06;102273.22;1557228;90;21167;-49
2022/05/20 04:37:05;;;;;;;3.80;2.17;;;;;;;19.80;44.09;102274.60;1609616;88;21561;-48
2022/05/20 04:39:33;;;;;;;2.90;2.02;;;;;;;19.75;44.15;102272.57;1592642;88;21029;-48
2022/05/20 04:47:31;;;;;;;3.52;2.20;;;;;;;19.69;44.66;102277.20;1610292;88;21113;-45
2022/05/20 04:49:58;;;;;;;4.22;2.40;;;;;;;19.66;44.83;102278.64;1614842;88;21078;-48
2022/05/20 04:52:25;;;;;;;3.27;2.45;;;;;;;19.66;45.11;102274.69;1612136;88;21093;-51
2022/05/20 04:54:55;;;;;;;2.55;2.10;;;;;;;19.67;45.23;102268.47;1612359;88;21061;-48
2022/05/20 04:57:47;;;;;;;4.40;2.30;;;;;;;19.67;45.23;102279.03;1611542;88;21127;-49
2022/05/20 05:00:22;;;;;;;5.53;3.10;;;;;;;19.66;45.26;102276.00;1607991;88;21070;-45
2022/05/20 05:02:50;;;;;;;3.40;2.22;;;;;;;19.65;45.27;102276.45;1569988;89;21631;-49
2022/05/20 05:05:21;;;;;;;3.90;2.37;;;;;;;19.68;45.35;102272.85;1589248;88;21221;-49
2022/05/20 05:07:49;;;;;;;3.37;2.30;;;;;;;19.73;45.58;102277.05;1592018;88;21560;-48
2022/05/20 05:10:19;;;;;;;4.12;2.50;;;;;;;19.88;45.96;102282.23;1589874;88;21071;-45
2022/05/20 05:12:46;;;;;;;3.37;2.12;;;;;;;20.12;45.85;102289.26;1582294;89;21093;-45
2022/05/20 05:15:13;;;;;;;5.75;2.27;;;;;;;20.49;45.47;102286.12;1595777;86;21722;-45
2022/05/20 05:20:28;;;;;;;4.83;2.17;;;;;;;21.38;43.19;102286.47;1575841;89;21118;-49
2022/05/20 05:22:56;;;;;;;3.42;2.50;;;;;;;21.75;42.30;102291.91;1588013;88;21061;-48
2022/05/20 05:25:26;;;;;;;4.25;2.10;;;;;;;21.99;41.41;102289.52;1621528;86;21021;-48
2022/05/20 05:27:53;;;;;;;4.37;2.35;;;;;;;22.21;40.98;102288.97;1603725;87;21135;-48
2022/05/20 05:30:22;;;;;;;2.85;1.98;;;;;;;22.42;40.46;102285.30;1599984;87;21652;-46
2022/05/20 05:32:49;;;;;;;3.42;2.00;;;;;;;22.65;40.00;102285.11;1597999;88;21069;-49
2022/05/20 05:35:18;;;;;;;4.42;2.30;;;;;;;22.88;39.58;102288.44;1598990;88;21031;-46
2022/05/20 05:37:46;;;;;;;4.65;2.50;;;;;;;23.09;39.21;102283.41;1602574;87;21119;-45
2022/05/20 05:40:17;;;;;;;3.47;2.35;;;;;;;23.30;38.83;102286.33;1597152;86;21200;-49
2022/05/20 05:42:44;;;;;;;3.65;2.08;;;;;;;23.42;38.80;102281.30;1605451;87;21633;-49
2022/05/20 05:45:12;;;;;;;3.02;2.02;;;;;;;23.48;38.78;102290.73;1609974;87;21072;-47
2022/05/20 05:47:41;;;;;;;6.60;3.10;;;;;;;23.54;38.87;102289.55;1577317;88;21087;-46
2022/05/20 05:50:08;;;;;;;2.98;2.08;;;;;;;23.63;38.91;102287.77;1615240;88;21091;-48
2022/05/20 05:52:35;;;;;;;4.65;2.40;;;;;;;23.74;39.00;102292.06;1619386;87;21583;-49
2022/05/20 05:55:03;;;;;;;3.25;1.98;;;;;;;23.86;38.93;102290.95;1623838;86;21100;-49
2022/05/20 05:57:30;;;;;;;5.80;2.12;;;;;;;24.07;38.99;102295.63;1590817;87;21217;-46
2022/05/20 05:59:58;;;;;;;3.90;2.08;;;;;;;24.68;38.22;102293.11;1648910;84;21093;-49
2022/05/20 06:02:25;;;;;;;2.87;1.92;;;;;;;24.68;38.22;102293.11;1665925;84;21557;-48
2022/05/20 06:04:52;;;;;;;3.17;1.95;;;;;;;24.99;37.43;102295.31;1674047;84;21046;-48
2022/05/20 06:07:19;;;;;;;4.83;1.90;;;;;;;25.29;37.02;102289.98;1699879;83;21031;-49
2022/05/20 06:09:46;;;;;;;3.00;2.02;;;;;;;25.65;36.43;102285.65;1678930;84;21082;-49
2022/05/20 06:12:14;;;;;;;7.87;2.15;;;;;;;25.98;35.43;102285.39;1665979;84;21091;-49
2022/05/20 06:14:42;;;;;;;3.50;2.00;;;;;;;26.21;34.93;102286.19;1676427;84;21050;-49
2022/05/20 06:17:14;;;;;;;2.85;1.80;;;;;;;26.36;34.09;102281.19;1665888;84;21087;-53
2022/05/20 06:19:40;;;;;;;4.55;2.50;;;;;;;26.37;33.61;102285.59;1664643;84;21094;-47
2022/05/20 06:22:08;;;;;;;3.47;1.90;;;;;;;26.35;33.56;102282.16;1675720;84;21067;-50
2022/05/20 06:24:35;;;;;;;5.15;1.70;;;;;;;26.50;33.50;102283.86;1680703;84;21080;-48
2022/05/20 06:27:02;;;;;;;4.55;1.90;;;;;;;26.78;33.43;102283.81;1690952;83;21029;-49
2022/05/20 06:29:30;;;;;;;4.45;1.80;;;;;;;27.02;32.80;102287.53;1686452;83;21078;-49
2022/05/20 06:31:57;;;;;;;6.55;2.02;;;;;;;27.17;32.75;102281.17;1674644;85;21069;-48
2022/05/20 06:34:23;;;;;;;5.83;1.75;;;;;;;27.23;32.67;102286.10;1663981;85;21594;-49
2022/05/20 06:39:50;;;;;;;4.75;2.12;;;;;;;27.19;31.67;102287.27;1662224;84;21030;-47
2022/05/20 06:42:19;;;;;;;2.50;2.00;;;;;;;27.01;31.03;102288.50;1676431;84;21552;-48
2022/05/20 06:44:46;;;;;;;4.15;1.80;;;;;;;26.84;30.31;102293.23;1700763;83;21569;-47
2022/05/20 06:47:13;;;;;;;2.62;2.08;;;;;;;26.76;30.62;102295.08;1681101;85;21072;-47
2022/05/20 06:49:42;;;;;;;3.42;1.80;;;;;;;26.83;30.16;102296.37;1691978;84;21511;-48
2022/05/20 06:52:09;;;;;;;4.10;1.72;;;;;;;26.91;29.82;102290.08;1680795;85;21058;-48
2022/05/20 06:54:35;;;;;;;4.30;1.60;;;;;;;27.05;29.58;102292.69;1680532;85;21573;-45
2022/05/20 06:57:03;;;;;;;5.47;1.95;;;;;;;27.25;29.40;102294.87;1702985;84;21058;-46
2022/05/20 06:59:29;;;;;;;3.90;1.65;;;;;;;27.45;28.97;102292.72;1680969;85;21048;-47
2022/05/20 07:02:00;;;;;;;4.40;1.80;;;;;;;27.64;28.65;102291.80;1680836;85;21066;-45
2022/05/20 07:04:24;;;;;;;3.67;1.70;;;;;;;27.87;28.11;102300.44;1686865;83;21044;-46
2022/05/20 07:06:51;;;;;;;5.12;1.60;;;;;;;28.09;26.97;102297.98;1675440;85;21540;-46
2022/05/20 07:09:18;;;;;;;3.42;1.47;;;;;;;28.29;26.72;102301.94;1680621;85;21052;-48
2022/05/20 07:11:47;;;;;;;3.80;1.80;;;;;;;28.49;26.42;102306.70;1698417;84;21079;-49
2022/05/20 07:14:14;;;;;;;5.40;1.92;;;;;;;28.68;25.64;102302.62;1691166;85;21056;-48
2022/05/20 07:16:43;;;;;;;3.30;1.90;;;;;;;28.83;25.08;102311.36;1690982;84;21607;-46
2022/05/20 07:19:11;;;;;;;3.55;1.90;;;;;;;28.92;24.78;102307.51;1690836;84;21576;-50
2022/05/20 07:21:38;;;;;;;3.60;1.65;;;;;;;28.94;24.54;102312.27;1690995;84;21020;-48
2022/05/20 07:24:07;;;;;;;1.85;1.52;;;;;;;29.00;24.15;102311.45;1690573;84;21531;-50
2022/05/20 07:26:34;;;;;;;2.72;1.60;;;;;;;29.08;24.10;102309.05;1690921;84;21114;-48
2022/05/20 07:29:02;;;;;;;2.12;1.50;;;;;;;29.19;23.63;102313.14;1690978;84;21085;-48
2022/05/20 07:31:29;;;;;;;2.83;1.20;;;;;;;29.30;23.61;102306.02;1690850;84;21030;-48
2022/05/20 07:33:57;;;;;;;4.50;2.12;;;;;;;29.42;22.63;102304.21;1700508;83;21036;-50
2022/05/20 07:36:24;;;;;;;21.00;1.62;;;;;;;29.44;22.94;102295.09;1685642;84;21486;-48
2022/05/20 07:38:51;;;;;;;2.55;1.55;;;;;;;29.39;22.75;102296.39;1690815;84;21073;-46
2022/05/20 07:41:19;;;;;;;2.52;1.67;;;;;;;29.30;22.54;102297.11;1690754;85;21042;-48
2022/05/20 07:43:46;;;;;;;2.87;1.30;;;;;;;29.16;22.58;102302.16;1701439;83;21049;-45
2022/05/20 07:46:14;;;;;;;1.42;1.30;;;;;;;28.98;22.60;102296.33;1688375;83;21012;-49
2022/05/20 07:48:41;;;;;;;4.03;1.67;;;;;;;28.73;22.76;102289.73;1660222;84;21050;-46
2022/05/20 07:51:13;;;;;;;3.30;1.50;;;;;;;28.53;22.83;102290.31;1654136;84;21074;-49
2022/05/20 07:53:44;;;;;;;3.80;2.02;;;;;;;28.38;23.16;102295.94;1676175;85;21046;-49
2022/05/20 07:56:21;;;;;;;3.37;1.75;;;;;;;28.25;22.87;102291.08;1666074;85;21013;-45
2022/05/20 07:58:52;;;;;;;1.57;1.30;;;;;;;28.10;22.94;102291.69;1629053;86;21081;-48
2022/05/20 08:01:22;;;;;;;5.03;1.40;;;;;;;27.95;22.39;102291.39;1657884;85;21530;-48
2022/05/20 08:06:37;;;;;;;3.65;1.70;;;;;;;27.67;22.11;102284.92;1649091;86;21111;-50
2022/05/20 08:09:06;;;;;;;2.95;1.50;;;;;;;27.56;22.12;102287.47;1646199;86;21147;-50
2022/05/20 08:11:35;;;;;;;1.82;1.20;;;;;;;27.44;21.99;102286.97;1636572;87;21098;-46
2022/05/20 08:14:02;;;;;;;1.72;1.00;;;;;;;27.35;21.79;102286.64;1633345;86;21597;-47
2022/05/20 08:16:29;;;;;;;5.08;4.00;;;;;;;27.32;21.61;102281.48;1673554;85;21069;-49
2022/05/20 08:18:56;;;;;;;2.12;1.42;;;;;;;27.31;21.35;102278.42;1653323;85;21588;-46
2022/05/20 08:21:22;;;;;;;1.80;1.27;;;;;;;27.27;20.62;102278.25;1640190;86;21562;-49
2022/05/20 08:23:50;;;;;;;1.62;1.30;;;;;;;27.22;20.84;102276.36;1642124;86;21087;-49
2022/05/20 08:26:18;;;;;;;3.30;1.20;;;;;;;27.20;20.93;102276.11;1644028;86;21586;-49
2022/05/20 08:28:46;;;;;;;2.30;1.00;;;;;;;27.16;20.88;102271.43;1631137;86;21121;-46
2022/05/20 08:31:14;;;;;;;1.82;1.42;;;;;;;27.09;20.65;102270.14;1647961;85;21071;-50
2022/05/20 08:33:41;;;;;;;3.52;1.05;;;;;;;27.06;20.77;102274.34;1659826;86;21027;-47
2022/05/20 08:36:08;;;;;;;2.80;1.42;;;;;;;27.05;20.66;102271.31;1671289;84;21058;-48
2022/05/20 08:38:35;;;;;;;1.60;1.00;;;;;;;27.04;20.30;102265.58;1690623;83;21208;-46
2022/05/20 08:41:02;;;;;;;1.57;1.10;;;;;;;27.01;20.52;102267.13;1661696;85;21089;-51
2022/05/20 08:43:32;;;;;;;1.70;1.00;;;;;;;27.00;20.56;102265.41;1679711;84;21084;-49
2022/05/20 08:46:00;;;;;;;1.52;1.00;;;;;;;27.06;21.04;102256.98;1689955;84;21549;-49
2022/05/20 08:48:27;;;;;;;2.08;1.15;;;;;;;27.14;22.23;102259.98;1691116;85;21038;-47
2022/05/20 08:50:55;;;;;;;1.87;1.12;;;;;;;27.26;22.33;102263.20;1682646;84;21093;-47
2022/05/20 08:53:35;;;;;;;2.33;1.75;;;;;;;27.37;22.55;102266.01;1679145;83;21073;-49
2022/05/20 08:56:05;;;;;;;2.02;1.07;;;;;;;27.48;23.83;102260.41;1688111;83;21180;-48
2022/05/20 08:58:32;;;;;;;3.23;1.23;;;;;;;27.58;24.10;102260.14;1654284;85;21047;-49
2022/05/20 09:01:00;;;;;;;1.55;1.20;;;;;;;27.65;23.95;102273.00;1660460;85;21025;-46
2022/05/20 09:03:26;;;;;;;1.55;1.27;;;;;;;27.72;25.40;102266.75;1662664;85;21089;-49
2022/05/20 09:06:10;;;;;;;1.57;1.30;;;;;;;27.77;25.71;102267.27;1656569;84;21558;-49
2022/05/20 09:08:37;;;;;;;6.30;2.02;;;;;;;27.79;25.21;102274.23;1590089;89;21621;-46
2022/05/20 09:11:06;;;;;;;2.58;1.50;;;;;;;27.83;27.32;102265.50;1569005;89;21142;-49
2022/05/20 09:16:30;;;;;;;3.72;1.65;;;;;;;27.74;29.38;102261.64;1566438;90;21105;-47
2022/05/20 09:19:13;;;;;;;3.30;1.42;;;;;;;27.70;30.96;102255.30;1566403;91;21119;-50
2022/05/20 09:21:42;;;;;;;1.40;1.22;;;;;;;27.65;31.78;102258.30;1527214;93;21621;-49
2022/05/20 09:24:22;;;;;;;2.30;1.52;;;;;;;27.56;33.32;102254.04;1528024;93;21182;-50
2022/05/20 09:26:59;;;;;;;2.17;1.45;;;;;;;27.45;34.07;102260.63;1527823;93;21722;-50
2022/05/20 09:29:30;;;;;;;1.20;1.10;;;;;;;27.33;34.10;102252.45;1527585;93;21142;-46
2022/05/20 09:32:03;;;;;;;1.75;1.30;;;;;;;27.22;34.24;102252.30;1532416;92;21061;-47
2022/05/20 09:34:41;;;;;;;1.62;1.30;;;;;;;27.15;33.91;102252.36;1528187;93;21095;-46
2022/05/20 09:37:18;;;;;;;1.52;1.05;;;;;;;27.10;34.17;102250.47;1536537;92;21171;-49
2022/05/20 09:39:48;;;;;;;2.25;1.00;;;;;;;27.04;33.48;102240.19;1528405;93;21091;-46
2022/05/20 09:42:26;;;;;;;2.08;1.25;;;;;;;27.00;32.89;102237.82;1530580;93;21070;-46
2022/05/20 09:45:01;;;;;;;1.87;1.27;;;;;;;26.96;32.24;102242.52;1508437;94;21108;-49
2022/05/20 09:47:48;;;;;;;1.60;1.05;;;;;;;26.95;32.69;102235.48;1507963;94;21118;-49
2022/05/20 09:50:25;;;;;;;2.37;1.17;;;;;;;26.95;32.72;102233.28;1508279;94;21202;-46
2022/05/20 09:53:12;;;;;;;2.02;1.20;;;;;;;26.95;32.82;102230.61;1505304;93;21104;-49
2022/05/20 09:55:43;;;;;;;1.37;1.27;;;;;;;26.95;33.36;102232.81;1529606;93;21123;-49
2022/05/20 09:58:27;;;;;;;3.12;1.25;;;;;;;26.93;33.65;102232.06;1532560;91;21053;-46
2022/05/20 10:01:08;;;;;;;4.58;1.40;;;;;;;26.90;34.27;102229.58;1534982;91;21089;-45
2022/05/20 10:03:42;;;;;;;4.53;1.40;;;;;;;26.87;34.95;102216.45;1512160;94;21180;-46
2022/05/20 10:06:30;;;;;;;2.00;1.35;;;;;;;26.84;35.25;102213.97;1543582;91;21634;-48
2022/05/20 10:09:35;;;;;;;2.55;1.40;;;;;;;26.80;35.23;102213.80;1555847;91;21555;-49
2022/05/20 10:12:14;;;;;;;1.57;1.20;;;;;;;26.73;34.85;102204.97;1555317;91;21087;-49
2022/05/20 10:14:57;;;;;;;1.72;1.45;;;;;;;26.64;35.80;102207.73;1557689;91;21062;-46
2022/05/20 10:17:35;;;;;;;2.15;1.45;;;;;;;26.59;36.41;102211.16;1573385;90;21084;-48
2022/05/20 10:20:19;;;;;;;3.52;1.40;;;;;;;26.52;37.01;102208.03;1578832;90;21720;-47
2022/05/20 10:22:52;;;;;;;1.55;1.20;;;;;;;26.50;37.35;102211.78;1576829;90;21103;-49
2022/05/20 10:25:48;;;;;;;2.10;1.20;;;;;;;26.47;37.35;102207.50;1578399;90;21131;-48
2022/05/20 10:34:12;;;;;;;1.57;1.22;;;;;;;26.45;37.33;102197.40;1513966;93;21212;-45
2022/05/20 10:36:58;;;;;;;2.95;1.60;;;;;;;26.44;37.24;102194.34;1503240;93;21210;-46
2022/05/20 10:39:45;;;;;;;1.95;1.50;;;;;;;26.46;37.17;102196.92;1480748;95;21126;-49
2022/05/20 10:42:33;;;;;;;2.72;1.52;;;;;;;26.44;37.20;102186.33;1471265;96;21123;-49
2022/05/20 10:48:36;;;;;;;4.37;1.65;;;;;;;26.43;37.13;102165.08;1456595;97;21104;-49
2022/05/20 10:51:47;;;;;;;2.10;1.40;;;;;;;26.45;37.27;102167.17;1459356;97;21111;-47
2022/05/20 10:54:55;;;;;;;3.72;1.55;;;;;;;26.49;37.52;102152.66;1447315;96;21195;-48
2022/05/20 10:57:28;;;;;;;2.95;1.37;;;;;;;26.51;37.74;102147.61;1430391;100;21181;-48
2022/05/20 11:00:15;;;;;;;1.67;1.37;;;;;;;26.53;37.53;102142.16;1411319;100;21107;-47
2022/05/20 11:03:04;;;;;;;1.98;1.27;;;;;;;26.57;37.33;102135.66;1406953;100;21644;-48
2022/05/20 11:05:53;;;;;;;2.52;1.35;;;;;;;26.60;36.87;102135.47;1399960;100;21154;-49
2022/05/20 11:08:47;;;;;;;1.60;1.40;;;;;;;26.63;36.88;102132.57;1404946;101;21682;-48
2022/05/20 11:11:32;;;;;;;2.00;1.35;;;;;;;26.66;36.91;102127.04;1404726;100;21222;-47
2022/05/20 11:14:22;;;;;;;1.30;1.20;;;;;;;26.70;36.94;102119.67;1402370;101;21187;-49
2022/05/20 11:17:20;;;;;;;4.10;1.35;;;;;;;26.73;36.91;102127.02;1460648;96;21118;-48
2022/05/20 11:20:03;;;;;;;1.50;1.07;;;;;;;26.76;36.86;102120.16;1441942;99;21298;-48
2022/05/20 11:23:03;;;;;;;6.70;1.30;;;;;;;26.77;36.23;102111.16;1439493;99;21111;-47
2022/05/20 11:25:52;;;;;;;2.75;1.60;;;;;;;26.79;36.13;102115.92;1442809;99;21641;-46
2022/05/20 11:28:40;;;;;;;3.05;1.42;;;;;;;26.81;36.51;102115.33;1446447;98;21151;-49
2022/05/20 11:31:43;;;;;;;2.95;1.17;;;;;;;26.82;36.65;102110.86;1406819;100;21170;-46
2022/05/20 11:34:34;;;;;;;1.27;1.00;;;;;;;26.83;36.50;102110.74;1426760;100;21086;-49
2022/05/20 11:37:25;;;;;;;1.10;0.82;;;;;;;26.86;35.83;102112.36;1416498;100;21175;-46
2022/05/20 11:40:08;;;;;;;1.42;1.10;;;;;;;26.85;34.52;102108.86;1413633;100;21186;-49
2022/05/20 11:43:19;;;;;;;5.92;1.25;;;;;;;26.84;34.96;102093.77;1391237;101;21783;-51
2022/05/20 11:46:20;;;;;;;;;;;;;;;26.85;35.47;102092.83;1439903;97;21653;-50
2022/05/20 11:49:09;;;;;;;1.50;1.00;;;;;;;26.85;35.16;102088.82;1446234;97;20262;-50
2022/05/20 11:51:51;;;;;;;3.08;1.47;;;;;;;26.87;35.25;102076.69;1445859;97;21113;-46
2022/05/20 11:54:57;;;;;;;5.92;1.35;;;;;;;26.87;35.99;102079.36;1427875;99;21230;-49
2022/05/20 11:57:27;;;;;;;3.50;1.17;;;;;;;26.89;36.65;102074.30;1515965;90;21093;-49
2022/05/20 12:00:03;;;;;;;1.47;0.72;;;;;;;26.90;36.59;102068.45;1586277;89;21064;-49
2022/05/20 12:02:55;;;;;;;3.75;1.15;;;;;;;26.91;36.79;102066.16;1589038;89;21092;-50
2022/05/20 12:05:27;;;;;;;2.17;0.93;;;;;;;26.91;36.86;102061.69;1582143;89;21164;-50
2022/05/20 12:07:55;;;;;;;2.10;1.15;;;;;;;26.89;35.98;102056.07;1589596;88;21589;-49
2022/05/20 12:10:47;;;;;;;2.72;1.00;;;;;;;26.83;35.47;102054.66;1594781;89;21102;-46
2022/05/20 12:13:26;;;;;;;2.30;1.22;;;;;;;26.77;35.40;102052.41;1576963;90;21057;-46
2022/05/20 12:16:13;;;;;;;2.55;0.95;;;;;;;26.73;35.12;102049.58;1600756;89;21059;-46
2022/05/20 12:24:52;;;;;;;5.78;1.95;;;;;;;26.55;35.16;102033.45;1590027;89;21069;-47
2022/05/20 12:27:28;;;;;;;2.83;0.80;;;;;;;26.49;35.09;102033.87;1597150;88;21118;-49
2022/05/20 12:30:06;;;;;;;2.45;0.90;;;;;;;26.43;35.51;102027.63;1589350;89;21057;-49